Mayburn Corners, Ohio
Current Conditions -  °F | °C
As of 1:51 PM on Saturday 25 Oct 2014 (Local Time) from KYNG Reporting Station
Broken Clouds Broken Clouds  
Wind Chill: 65°   Ceiling: 3600
Heat Index: 65°   Visibility: 10mi
Dew Point: 49°   Wind: 15mph
Humidity: 56%   Direction: 240°WSW
Pressure: 29.78"   Gusts: 26mph
Location:  41.4314°N, 80.6629°W
Report Text: KYNG 251751Z 24013G23KT 10SM BKN036 18/09 A2978 RMK AO2 SLP083 T01830094 10194 20083 58026 $
Loading
Personal Weather Stations






























Interactive Weather Map
Tropical Storm Tracking
New forecast layout! Learn more

10-Day Weather Forecast

Advertisements
Track Severe Weather on mobile